AirNav   ProFlight Series 2 Aviation Headset
 
 1064 users online  

32MI William Beaumont Hospital Heliport
Royal Oak, Michigan, USA

GOING TO ROYAL OAK?


FAA INFORMATION EFFECTIVE 18 JUNE 2020

Location

FAA Identifier: 32MI
Lat/Long: 42-30-54.2800N 083-11-39.0000W
42-30.904667N 083-11.650000W
42.5150778,-83.1941667
(estimated)
Elevation: 771 ft. / 235 m (estimated)
Variation: 06W (1990)
From city: 1 mile W of ROYAL OAK, MI
Time zone: UTC -4 (UTC -5 during Standard Time)
Zip code: 48073

Heliport Operations

Heliport use: Private use, MEDICAL USE.
Activation date: 03/1993
Control tower: no
ARTCC: CLEVELAND CENTER
FSS: LANSING FLIGHT SERVICE STATION
Attendance: CONTINUOUS
Segmented circle: no
Lights: SS-SR

Heliport Communications

WX AWOS-3 at VLL (1.8 nm NE): 119.475 (248-288-4649)
WX ASOS at DET (10 nm SE): PHONE 313-371-9696
WX ASOS at PTK (13 nm NW): 125.025 (248-886-8551)
WX ASOS at DTW (19 nm S): 133.675 (734-955-5015)

Nearby radio navigation aids

VOR radial/distance  VOR name  Freq  Var
SVMr073/18.8SALEM VORTAC114.3003W
DXOr029/19.7DETROIT VOR/DME113.4006W
CRLr026/30.4CARLETON VOR/DME115.7003W
FNTr144/36.4FLINT VORTAC116.9006W

 
NDB name  Hdg/Dist  Freq  Var  ID
GROSSE ILE003/24.941907WRYS .-. -.-- ...

Heliport Services

Runway Information

Helipad H1

Dimensions: 53 x 53 ft. / 16 x 16 m
Surface: concrete
Runway edge lights: PERI
Latitude: 42-30.904667N
Longitude: 083-11.650000W
Elevation: 771.0 ft.
Traffic pattern: leftleft
Obstructions: bldg
H1 116 FT BLDG 120 FT E; 130 FT CHIMNEYS 235 FT S; 33 FT LGT POLES IN VCNTY.

Heliport Ownership and Management from official FAA records

Ownership: Privately-owned
Owner: WILLIAM BEAUMONT HOSPITAL
3601 W 13 MILE RD
ROYAL OAK, MI 48072
Manager: CHRISTINE LAKING
3601 W 13 MILE RD
ROYAL OAK, MI 48072
Phone (248) 898-2691

Additional Remarks

FOR CD CTC DETROIT APCH AT 800-499-8181.

Instrument Procedures

There are no published instrument procedures at 32MI.

Some nearby airports with instrument procedures:

KVLL - Oakland/Troy Airport (2 nm NE)
KDET - Coleman A Young Municipal Airport (10 nm SE)
KPTK - Oakland County International Airport (13 nm NW)
1D2 - Canton-Plymouth-Mettetal Airport (15 nm SW)
KMTC - Selfridge Air National Guard Base (17 nm E)
57D - Ray Community Airport (19 nm NE)
Y47 - Oakland Southwest Airport (19 nm W)
D98 - Romeo State Airport (19 nm NE)
KDTW - Detroit Metropolitan Wayne County Airport (19 nm S)
 
Loc | Ops | Rwys | IFR | FBO | Links
Com | Nav | Svcs | Stats | Notes
Area around 32MI (William Beaumont Hospital Heliport)
 
Road maps at: MapQuest Bing Google
 
Aerial photo
No photo
 
Sectional chart

 
Airport distance calculator
Flying to William Beaumont Hospital Heliport? Find the distance to fly.

From to 32MI

Sunrise and sunset
Times for 06-Jul-2020
 Local
(UTC-4)
 Zulu
(UTC)
Morning civil twilight05:2909:29
Sunrise06:0410:04
Sunset21:1201:12
Evening civil twilight21:4601:46

Current date and time
Zulu (UTC)  06-Jul-2020 22:39:22
Local (UTC-4)  06-Jul-2020 18:39:22
 
METAR
KVLL 
2nm NE 
062215Z AUTO 25008G14KT 10SM SCT120 32/18 A2999 RMK AO2 T03180181
KDET 
10nm SE 
062153Z 23013G21KT 10SM BKN075 BKN090 32/19 A2997 RMK AO2 SLP143 T03220189
KPTK 
13nm NW 
062153Z 25008KT 10SM FEW070 SCT250 33/17 A2997 RMK AO2 SLP138 CB DSNT SE MOV E T03280167 $
KMTC 
18nm E 
062156Z 13008KT 10SM FEW070 SCT250 31/17 A2996 RMK AO2A SLP146 T03080167 $
CYQG 
18nm SE 
062200Z AUTO 23010G19KT 9SM SCT075 32/19 A2997 RMK SLP148 DENSITY ALT 2500FT
KDTW 
18nm S 
062153Z 00000KT 10SM BKN065 BKN100 OVC250 29/19 A2997 RMK AO2 PK WND 25029/2054 WSHFT 2040 RAB03E27 TSE27 SLP144 TS MOV SE P0000 T02940189
TAF
KDET 
10nm SE 
061742Z 0618/0718 14008KT P6SM SCT060 FM070200 VRB02KT P6SM SCT090 FM071100 24004KT P6SM FEW070
KPTK 
13nm NW 
061742Z 0618/0718 17008KT P6SM SCT060 TEMPO 0619/0622 6SM SHRA BKN050 FM070200 VRB02KT P6SM SCT090 FM070900 24004KT P6SM FEW070
KMTC 
18nm E 
061700Z 0617/0723 16009KT 9999 BKN060 QNH2990INS TEMPO 0718/0723 VRB06KT 9000 -TSRA FEW070CB TX33/0620Z TN19/0710Z
CYQG 
18nm SE 
061739Z 0618/0718 21005KT P6SM SCT070 FM070100 16005KT P6SM FEW060 FM071600 23008KT P6SM SCT080 RMK FCST BASED ON AUTO OBS. NXT FCST BY 070000Z
KDTW 
18nm S 
062135Z 0622/0724 18005KT P6SM SCT060 BKN120 TEMPO 0622/0623 23014G24KT 6SM -SHRA BKN060 FM070200 VRB02KT P6SM SCT090 FM070900 VRB02KT 5SM BR FEW070 FM071100 24004KT P6SM FEW070
NOTAMs
Click for the latest NOTAMs
NOTAMs are issued by the DoD/FAA and will open in a separate window not controlled by AirNav.

 

 
 

Would you like to see your business listed on this page?

 If your business provides an interesting product or service to pilots, flight crews, aircraft, or users of the William Beaumont Hospital Heliport, you should consider listing it here.  To start the listing process, click on the button below
 
Add a business
 

Other Pages about William Beaumont Hospital Heliport

Update a link
 
Copyright © AirNav, LLC. All rights reserved. Privacy Policy  Contact